sensor_id;sensor_type;location;lat;lon;timestamp;temperature;humidity
20827;DHT22;10574;52.508;13.236;2022-11-15T00:01:08;5.20;99.90
20827;DHT22;10574;52.508;13.236;2022-11-15T00:03:36;5.20;99.90
20827;DHT22;10574;52.508;13.236;2022-11-15T00:06:04;5.20;99.90
20827;DHT22;10574;52.508;13.236;2022-11-15T00:08:32;5.20;99.90
20827;DHT22;10574;52.508;13.236;2022-11-15T00:11:02;5.10;99.90
20827;DHT22;10574;52.508;13.236;2022-11-15T00:13:31;5.10;99.90
20827;DHT22;10574;52.508;13.236;2022-11-15T00:16:01;5.10;99.90
20827;DHT22;10574;52.508;13.236;2022-11-15T00:18:29;5.10;99.90
20827;DHT22;10574;52.508;13.236;2022-11-15T00:21:06;5.10;99.90
20827;DHT22;10574;52.508;13.236;2022-11-15T00:23:34;5.20;99.90
20827;DHT22;10574;52.508;13.236;2022-11-15T00:26:02;5.20;99.90
20827;DHT22;10574;52.508;13.236;2022-11-15T00:28:31;5.20;99.90
20827;DHT22;10574;52.508;13.236;2022-11-15T00:31:03;5.30;99.90
20827;DHT22;10574;52.508;13.236;2022-11-15T00:33:32;5.30;99.90
20827;DHT22;10574;52.508;13.236;2022-11-15T00:36:09;5.30;99.90
20827;DHT22;10574;52.508;13.236;2022-11-15T00:38:34;5.40;99.90
20827;DHT22;10574;52.508;13.236;2022-11-15T00:41:04;5.40;99.90
20827;DHT22;10574;52.508;13.236;2022-11-15T00:43:32;5.40;99.90
20827;DHT22;10574;52.508;13.236;2022-11-15T00:45:59;5.40;99.90
20827;DHT22;10574;52.508;13.236;2022-11-15T00:48:29;5.40;99.90
20827;DHT22;10574;52.508;13.236;2022-11-15T00:50:58;5.40;99.90
20827;DHT22;10574;52.508;13.236;2022-11-15T00:53:25;5.40;99.90
20827;DHT22;10574;52.508;13.236;2022-11-15T00:55:53;5.30;99.90
20827;DHT22;10574;52.508;13.236;2022-11-15T00:58:21;5.40;99.90
20827;DHT22;10574;52.508;13.236;2022-11-15T01:00:49;5.40;99.90
20827;DHT22;10574;52.508;13.236;2022-11-15T01:03:16;5.40;99.90
20827;DHT22;10574;52.508;13.236;2022-11-15T01:05:44;5.40;99.90
20827;DHT22;10574;52.508;13.236;2022-11-15T01:08:15;5.40;99.90
20827;DHT22;10574;52.508;13.236;2022-11-15T01:10:43;5.30;99.90
20827;DHT22;10574;52.508;13.236;2022-11-15T01:13:11;5.30;99.90
20827;DHT22;10574;52.508;13.236;2022-11-15T01:15:42;5.30;99.90
20827;DHT22;10574;52.508;13.236;2022-11-15T01:18:10;5.30;99.90
20827;DHT22;10574;52.508;13.236;2022-11-15T01:20:42;5.30;99.90
20827;DHT22;10574;52.508;13.236;2022-11-15T01:23:09;5.30;99.90
20827;DHT22;10574;52.508;13.236;2022-11-15T01:25:37;5.30;99.90
20827;DHT22;10574;52.508;13.236;2022-11-15T01:28:05;5.50;99.90
20827;DHT22;10574;52.508;13.236;2022-11-15T01:30:33;5.50;99.90
20827;DHT22;10574;52.508;13.236;2022-11-15T01:33:00;5.40;99.90
20827;DHT22;10574;52.508;13.236;2022-11-15T01:35:28;5.30;99.90
20827;DHT22;10574;52.508;13.236;2022-11-15T01:37:56;5.30;99.90
20827;DHT22;10574;52.508;13.236;2022-11-15T01:40:23;5.30;99.90
20827;DHT22;10574;52.508;13.236;2022-11-15T01:42:51;5.30;99.90
20827;DHT22;10574;52.508;13.236;2022-11-15T01:45:19;5.30;99.90
20827;DHT22;10574;52.508;13.236;2022-11-15T01:47:49;5.20;99.90
20827;DHT22;10574;52.508;13.236;2022-11-15T01:50:19;5.30;99.90
20827;DHT22;10574;52.508;13.236;2022-11-15T01:52:48;5.30;99.90
20827;DHT22;10574;52.508;13.236;2022-11-15T01:55:21;5.30;99.90
20827;DHT22;10574;52.508;13.236;2022-11-15T01:57:53;5.30;99.90
20827;DHT22;10574;52.508;13.236;2022-11-15T02:00:20;5.30;99.90
20827;DHT22;10574;52.508;13.236;2022-11-15T02:02:48;5.30;99.90
20827;DHT22;10574;52.508;13.236;2022-11-15T02:05:16;5.30;99.90
20827;DHT22;10574;52.508;13.236;2022-11-15T02:07:44;5.20;99.90
20827;DHT22;10574;52.508;13.236;2022-11-15T02:10:18;5.20;99.90
20827;DHT22;10574;52.508;13.236;2022-11-15T02:12:47;5.30;99.90
20827;DHT22;10574;52.508;13.236;2022-11-15T02:15:15;5.30;99.90
20827;DHT22;10574;52.508;13.236;2022-11-15T02:20:41;5.30;99.90
20827;DHT22;10574;52.508;13.236;2022-11-15T02:31:46;5.50;99.90
20827;DHT22;10574;52.508;13.236;2022-11-15T02:34:33;5.50;99.90
20827;DHT22;10574;52.508;13.236;2022-11-15T02:37:03;5.50;99.90
20827;DHT22;10574;52.508;13.236;2022-11-15T02:42:12;5.40;99.90
20827;DHT22;10574;52.508;13.236;2022-11-15T02:45:01;5.40;99.90
20827;DHT22;10574;52.508;13.236;2022-11-15T02:47:31;5.40;99.90
20827;DHT22;10574;52.508;13.236;2022-11-15T02:50:02;5.40;99.90
20827;DHT22;10574;52.508;13.236;2022-11-15T02:52:30;5.30;99.90
20827;DHT22;10574;52.508;13.236;2022-11-15T02:54:59;5.30;99.90
20827;DHT22;10574;52.508;13.236;2022-11-15T02:57:40;5.30;99.90
20827;DHT22;10574;52.508;13.236;2022-11-15T03:00:15;5.30;99.90
20827;DHT22;10574;52.508;13.236;2022-11-15T03:11:25;5.40;99.90
20827;DHT22;10574;52.508;13.236;2022-11-15T03:16:20;5.40;99.90
20827;DHT22;10574;52.508;13.236;2022-11-15T03:18:54;5.30;99.90
20827;DHT22;10574;52.508;13.236;2022-11-15T03:21:22;5.30;99.90
20827;DHT22;10574;52.508;13.236;2022-11-15T03:23:52;5.30;99.90
20827;DHT22;10574;52.508;13.236;2022-11-15T03:26:23;5.30;99.90
20827;DHT22;10574;52.508;13.236;2022-11-15T03:28:54;5.30;99.90
20827;DHT22;10574;52.508;13.236;2022-11-15T03:31:23;5.30;99.90
20827;DHT22;10574;52.508;13.236;2022-11-15T03:34:13;5.30;99.90
20827;DHT22;10574;52.508;13.236;2022-11-15T03:36:41;5.20;99.90
20827;DHT22;10574;52.508;13.236;2022-11-15T03:39:09;5.20;99.90
20827;DHT22;10574;52.508;13.236;2022-11-15T03:41:39;5.20;99.90
20827;DHT22;10574;52.508;13.236;2022-11-15T03:44:26;5.10;99.90
20827;DHT22;10574;52.508;13.236;2022-11-15T03:49:29;5.10;99.90
20827;DHT22;10574;52.508;13.236;2022-11-15T03:51:58;5.10;99.90
20827;DHT22;10574;52.508;13.236;2022-11-15T03:54:26;5.10;99.90
20827;DHT22;10574;52.508;13.236;2022-11-15T03:56:54;5.20;99.90
20827;DHT22;10574;52.508;13.236;2022-11-15T03:59:22;5.30;99.90
20827;DHT22;10574;52.508;13.236;2022-11-15T04:01:50;5.20;99.90
20827;DHT22;10574;52.508;13.236;2022-11-15T04:04:17;5.20;99.90
20827;DHT22;10574;52.508;13.236;2022-11-15T04:06:45;5.20;99.90
20827;DHT22;10574;52.508;13.236;2022-11-15T04:09:13;5.10;99.90
20827;DHT22;10574;52.508;13.236;2022-11-15T04:11:41;5.10;99.90
20827;DHT22;10574;52.508;13.236;2022-11-15T04:14:08;5.10;99.90
20827;DHT22;10574;52.508;13.236;2022-11-15T04:16:36;5.10;99.90
20827;DHT22;10574;52.508;13.236;2022-11-15T04:19:04;5.10;99.90
20827;DHT22;10574;52.508;13.236;2022-11-15T04:21:49;5.10;99.90
20827;DHT22;10574;52.508;13.236;2022-11-15T04:24:35;5.10;99.90
20827;DHT22;10574;52.508;13.236;2022-11-15T04:27:03;5.10;99.90
20827;DHT22;10574;52.508;13.236;2022-11-15T04:29:31;5.20;99.90
20827;DHT22;10574;52.508;13.236;2022-11-15T04:32:03;5.20;99.90
20827;DHT22;10574;52.508;13.236;2022-11-15T04:34:32;5.20;99.90
20827;DHT22;10574;52.508;13.236;2022-11-15T04:37:00;5.20;99.90
20827;DHT22;10574;52.508;13.236;2022-11-15T04:39:41;5.20;99.90
20827;DHT22;10574;52.508;13.236;2022-11-15T04:42:10;5.20;99.90
20827;DHT22;10574;52.508;13.236;2022-11-15T04:44:37;5.20;99.90
20827;DHT22;10574;52.508;13.236;2022-11-15T04:47:05;5.20;99.90
20827;DHT22;10574;52.508;13.236;2022-11-15T04:52:23;5.10;99.90
20827;DHT22;10574;52.508;13.236;2022-11-15T04:54:51;5.10;99.90
20827;DHT22;10574;52.508;13.236;2022-11-15T04:57:19;5.00;99.90
20827;DHT22;10574;52.508;13.236;2022-11-15T04:59:47;5.00;99.90
20827;DHT22;10574;52.508;13.236;2022-11-15T05:02:14;5.10;99.90
20827;DHT22;10574;52.508;13.236;2022-11-15T05:04:42;5.20;99.90
20827;DHT22;10574;52.508;13.236;2022-11-15T05:07:10;5.20;99.90
20827;DHT22;10574;52.508;13.236;2022-11-15T05:09:38;5.20;99.90
20827;DHT22;10574;52.508;13.236;2022-11-15T05:12:06;5.10;99.90
20827;DHT22;10574;52.508;13.236;2022-11-15T05:14:33;5.20;99.90
20827;DHT22;10574;52.508;13.236;2022-11-15T05:17:01;5.20;99.90
20827;DHT22;10574;52.508;13.236;2022-11-15T05:19:29;5.30;99.90
20827;DHT22;10574;52.508;13.236;2022-11-15T05:21:57;5.30;99.90
20827;DHT22;10574;52.508;13.236;2022-11-15T05:24:24;5.20;99.90
20827;DHT22;10574;52.508;13.236;2022-11-15T05:26:52;5.30;99.90
20827;DHT22;10574;52.508;13.236;2022-11-15T05:29:20;5.30;99.90
20827;DHT22;10574;52.508;13.236;2022-11-15T05:31:48;5.40;99.90
20827;DHT22;10574;52.508;13.236;2022-11-15T05:34:15;5.40;99.90
20827;DHT22;10574;52.508;13.236;2022-11-15T05:36:45;5.50;99.90
20827;DHT22;10574;52.508;13.236;2022-11-15T05:39:13;5.50;99.90
20827;DHT22;10574;52.508;13.236;2022-11-15T05:41:48;5.50;99.90
20827;DHT22;10574;52.508;13.236;2022-11-15T05:44:19;5.70;99.90
20827;DHT22;10574;52.508;13.236;2022-11-15T05:46:48;5.70;99.90
20827;DHT22;10574;52.508;13.236;2022-11-15T05:49:18;5.70;99.90
20827;DHT22;10574;52.508;13.236;2022-11-15T05:51:48;5.70;99.90
20827;DHT22;10574;52.508;13.236;2022-11-15T05:54:18;5.70;99.90
20827;DHT22;10574;52.508;13.236;2022-11-15T05:56:47;5.60;99.90
20827;DHT22;10574;52.508;13.236;2022-11-15T05:59:14;5.60;99.90
20827;DHT22;10574;52.508;13.236;2022-11-15T06:01:42;5.60;99.90
20827;DHT22;10574;52.508;13.236;2022-11-15T06:04:10;5.60;99.90
20827;DHT22;10574;52.508;13.236;2022-11-15T06:06:38;5.60;99.90
20827;DHT22;10574;52.508;13.236;2022-11-15T06:09:05;5.70;99.90
20827;DHT22;10574;52.508;13.236;2022-11-15T06:11:33;5.70;99.90
20827;DHT22;10574;52.508;13.236;2022-11-15T06:14:01;5.70;99.90
20827;DHT22;10574;52.508;13.236;2022-11-15T06:16:29;5.70;99.90
20827;DHT22;10574;52.508;13.236;2022-11-15T06:18:56;5.70;99.90
20827;DHT22;10574;52.508;13.236;2022-11-15T06:21:24;5.60;99.90
20827;DHT22;10574;52.508;13.236;2022-11-15T06:23:54;5.60;99.90
20827;DHT22;10574;52.508;13.236;2022-11-15T06:26:22;5.50;99.90
20827;DHT22;10574;52.508;13.236;2022-11-15T06:28:49;5.50;99.90
20827;DHT22;10574;52.508;13.236;2022-11-15T06:31:17;5.50;99.90
20827;DHT22;10574;52.508;13.236;2022-11-15T06:33:46;5.50;99.90
20827;DHT22;10574;52.508;13.236;2022-11-15T06:36:15;5.40;99.90
20827;DHT22;10574;52.508;13.236;2022-11-15T06:38:44;5.40;99.90
20827;DHT22;10574;52.508;13.236;2022-11-15T06:41:13;5.40;99.90
20827;DHT22;10574;52.508;13.236;2022-11-15T06:43:41;5.40;99.90
20827;DHT22;10574;52.508;13.236;2022-11-15T06:46:09;5.30;99.90
20827;DHT22;10574;52.508;13.236;2022-11-15T06:48:37;5.40;99.90
20827;DHT22;10574;52.508;13.236;2022-11-15T06:51:05;5.40;99.90
20827;DHT22;10574;52.508;13.236;2022-11-15T06:53:34;5.40;99.90
20827;DHT22;10574;52.508;13.236;2022-11-15T06:56:03;5.40;99.90
20827;DHT22;10574;52.508;13.236;2022-11-15T06:58:32;5.40;99.90
20827;DHT22;10574;52.508;13.236;2022-11-15T07:01:03;5.40;99.90
20827;DHT22;10574;52.508;13.236;2022-11-15T07:03:31;5.40;99.90
20827;DHT22;10574;52.508;13.236;2022-11-15T07:05:59;5.40;99.90
20827;DHT22;10574;52.508;13.236;2022-11-15T07:08:28;5.40;99.90
20827;DHT22;10574;52.508;13.236;2022-11-15T07:11:02;5.50;99.90
20827;DHT22;10574;52.508;13.236;2022-11-15T07:13:31;5.50;99.90
20827;DHT22;10574;52.508;13.236;2022-11-15T07:16:08;5.60;99.90
20827;DHT22;10574;52.508;13.236;2022-11-15T07:18:37;5.60;99.90
20827;DHT22;10574;52.508;13.236;2022-11-15T07:21:07;5.60;99.90
20827;DHT22;10574;52.508;13.236;2022-11-15T07:23:36;5.70;99.90
20827;DHT22;10574;52.508;13.236;2022-11-15T07:26:04;5.70;99.90
20827;DHT22;10574;52.508;13.236;2022-11-15T07:28:32;5.70;99.90
20827;DHT22;10574;52.508;13.236;2022-11-15T07:31:08;5.60;99.90
20827;DHT22;10574;52.508;13.236;2022-11-15T07:33:36;5.60;99.90
20827;DHT22;10574;52.508;13.236;2022-11-15T07:36:05;5.60;99.90
20827;DHT22;10574;52.508;13.236;2022-11-15T07:38:34;5.70;99.90
20827;DHT22;10574;52.508;13.236;2022-11-15T07:41:03;5.70;99.90
20827;DHT22;10574;52.508;13.236;2022-11-15T07:43:32;5.80;99.90
20827;DHT22;10574;52.508;13.236;2022-11-15T07:46:05;5.90;99.90
20827;DHT22;10574;52.508;13.236;2022-11-15T07:48:35;6.00;99.90
20827;DHT22;10574;52.508;13.236;2022-11-15T07:51:03;6.10;99.90
20827;DHT22;10574;52.508;13.236;2022-11-15T07:53:31;6.20;99.90
20827;DHT22;10574;52.508;13.236;2022-11-15T07:55:59;6.30;99.90
20827;DHT22;10574;52.508;13.236;2022-11-15T07:58:26;6.40;99.90
20827;DHT22;10574;52.508;13.236;2022-11-15T08:00:54;6.50;99.90
20827;DHT22;10574;52.508;13.236;2022-11-15T08:03:22;6.50;99.90
20827;DHT22;10574;52.508;13.236;2022-11-15T08:05:53;6.60;99.90
20827;DHT22;10574;52.508;13.236;2022-11-15T08:08:21;6.60;99.90
20827;DHT22;10574;52.508;13.236;2022-11-15T08:10:49;6.70;99.90
20827;DHT22;10574;52.508;13.236;2022-11-15T08:13:17;6.70;99.90
20827;DHT22;10574;52.508;13.236;2022-11-15T08:15:45;6.80;99.90
20827;DHT22;10574;52.508;13.236;2022-11-15T08:18:15;6.90;99.90
20827;DHT22;10574;52.508;13.236;2022-11-15T08:20:43;7.00;99.90
20827;DHT22;10574;52.508;13.236;2022-11-15T08:23:12;7.00;99.90
20827;DHT22;10574;52.508;13.236;2022-11-15T08:25:40;7.10;99.90
20827;DHT22;10574;52.508;13.236;2022-11-15T08:28:09;7.10;99.90
20827;DHT22;10574;52.508;13.236;2022-11-15T08:30:39;7.20;99.90
20827;DHT22;10574;52.508;13.236;2022-11-15T08:33:10;7.20;99.90
20827;DHT22;10574;52.508;13.236;2022-11-15T08:35:40;7.30;99.90
20827;DHT22;10574;52.508;13.236;2022-11-15T08:38:08;7.30;99.90
20827;DHT22;10574;52.508;13.236;2022-11-15T08:40:36;7.40;99.90
20827;DHT22;10574;52.508;13.236;2022-11-15T08:43:04;7.40;99.90
20827;DHT22;10574;52.508;13.236;2022-11-15T08:45:34;7.50;99.90
20827;DHT22;10574;52.508;13.236;2022-11-15T08:48:03;7.50;99.90
20827;DHT22;10574;52.508;13.236;2022-11-15T08:50:32;7.60;99.90
20827;DHT22;10574;52.508;13.236;2022-11-15T08:53:05;7.60;99.90
20827;DHT22;10574;52.508;13.236;2022-11-15T08:55:37;7.70;99.90
20827;DHT22;10574;52.508;13.236;2022-11-15T08:58:02;7.80;99.90
20827;DHT22;10574;52.508;13.236;2022-11-15T09:00:30;8.00;99.90
20827;DHT22;10574;52.508;13.236;2022-11-15T09:02:58;8.10;99.90
20827;DHT22;10574;52.508;13.236;2022-11-15T09:05:26;8.20;99.90
20827;DHT22;10574;52.508;13.236;2022-11-15T09:07:55;8.30;99.90
20827;DHT22;10574;52.508;13.236;2022-11-15T09:10:22;8.50;99.90
20827;DHT22;10574;52.508;13.236;2022-11-15T09:12:51;8.60;99.90
20827;DHT22;10574;52.508;13.236;2022-11-15T09:15:19;8.70;99.90
20827;DHT22;10574;52.508;13.236;2022-11-15T09:17:47;8.80;99.90
20827;DHT22;10574;52.508;13.236;2022-11-15T09:20:15;8.80;99.90
20827;DHT22;10574;52.508;13.236;2022-11-15T09:22:43;8.90;99.90
20827;DHT22;10574;52.508;13.236;2022-11-15T09:25:10;9.10;99.90
20827;DHT22;10574;52.508;13.236;2022-11-15T09:27:38;9.30;99.90
20827;DHT22;10574;52.508;13.236;2022-11-15T09:30:07;9.50;99.90
20827;DHT22;10574;52.508;13.236;2022-11-15T09:32:34;9.50;99.90
20827;DHT22;10574;52.508;13.236;2022-11-15T09:35:02;9.50;99.90
20827;DHT22;10574;52.508;13.236;2022-11-15T09:37:32;9.60;99.90
20827;DHT22;10574;52.508;13.236;2022-11-15T09:39:59;9.70;99.90
20827;DHT22;10574;52.508;13.236;2022-11-15T09:48:16;10.20;99.90
20827;DHT22;10574;52.508;13.236;2022-11-15T09:50:46;10.30;99.90
20827;DHT22;10574;52.508;13.236;2022-11-15T09:55:59;10.70;99.90
20827;DHT22;10574;52.508;13.236;2022-11-15T10:01:16;10.80;99.90
20827;DHT22;10574;52.508;13.236;2022-11-15T10:03:43;11.10;99.90
20827;DHT22;10574;52.508;13.236;2022-11-15T10:06:21;11.20;99.90
20827;DHT22;10574;52.508;13.236;2022-11-15T10:08:51;11.40;99.90
20827;DHT22;10574;52.508;13.236;2022-11-15T10:11:22;11.60;99.90
20827;DHT22;10574;52.508;13.236;2022-11-15T10:13:52;11.60;99.90
20827;DHT22;10574;52.508;13.236;2022-11-15T10:22:15;11.20;99.90
20827;DHT22;10574;52.508;13.236;2022-11-15T10:24:43;11.10;99.90
20827;DHT22;10574;52.508;13.236;2022-11-15T10:27:13;11.20;99.90
20827;DHT22;10574;52.508;13.236;2022-11-15T10:29:49;11.30;99.90
20827;DHT22;10574;52.508;13.236;2022-11-15T10:32:19;11.60;99.90
20827;DHT22;10574;52.508;13.236;2022-11-15T10:34:48;11.80;99.90
20827;DHT22;10574;52.508;13.236;2022-11-15T10:37:28;12.00;99.90
20827;DHT22;10574;52.508;13.236;2022-11-15T10:40:05;12.00;99.90
20827;DHT22;10574;52.508;13.236;2022-11-15T10:42:33;12.00;99.90
20827;DHT22;10574;52.508;13.236;2022-11-15T10:45:01;12.10;99.90
20827;DHT22;10574;52.508;13.236;2022-11-15T10:47:31;12.10;99.90
20827;DHT22;10574;52.508;13.236;2022-11-15T10:50:05;11.90;99.90
20827;DHT22;10574;52.508;13.236;2022-11-15T10:52:35;11.80;99.90
20827;DHT22;10574;52.508;13.236;2022-11-15T10:57:49;12.10;99.90
20827;DHT22;10574;52.508;13.236;2022-11-15T11:00:35;12.10;99.90
20827;DHT22;10574;52.508;13.236;2022-11-15T11:03:20;12.10;99.90
20827;DHT22;10574;52.508;13.236;2022-11-15T11:05:39;12.20;99.90
20827;DHT22;10574;52.508;13.236;2022-11-15T11:11:03;12.50;99.90
20827;DHT22;10574;52.508;13.236;2022-11-15T11:13:29;12.60;99.90
20827;DHT22;10574;52.508;13.236;2022-11-15T11:16:17;12.70;99.90
20827;DHT22;10574;52.508;13.236;2022-11-15T11:29:49;12.70;99.90
20827;DHT22;10574;52.508;13.236;2022-11-15T11:32:22;12.70;99.90
20827;DHT22;10574;52.508;13.236;2022-11-15T11:35:11;12.60;99.90
20827;DHT22;10574;52.508;13.236;2022-11-15T11:37:52;12.60;99.90
20827;DHT22;10574;52.508;13.236;2022-11-15T11:40:29;12.60;99.90
20827;DHT22;10574;52.508;13.236;2022-11-15T11:43:05;12.50;99.90
20827;DHT22;10574;52.508;13.236;2022-11-15T11:54:03;12.50;99.90
20827;DHT22;10574;52.508;13.236;2022-11-15T11:56:04;12.70;99.90
20827;DHT22;10574;52.508;13.236;2022-11-15T11:58:41;12.60;99.90
20827;DHT22;10574;52.508;13.236;2022-11-15T12:04:04;12.60;99.90
20827;DHT22;10574;52.508;13.236;2022-11-15T12:06:49;12.80;99.90
20827;DHT22;10574;52.508;13.236;2022-11-15T12:15:18;12.80;99.90
20827;DHT22;10574;52.508;13.236;2022-11-15T12:17:49;12.90;99.90
20827;DHT22;10574;52.508;13.236;2022-11-15T12:20:24;13.00;99.90
20827;DHT22;10574;52.508;13.236;2022-11-15T12:25:53;13.00;99.90
20827;DHT22;10574;52.508;13.236;2022-11-15T12:28:43;12.90;99.90
20827;DHT22;10574;52.508;13.236;2022-11-15T12:30:55;12.90;99.90
20827;DHT22;10574;52.508;13.236;2022-11-15T12:33:41;13.00;99.90
20827;DHT22;10574;52.508;13.236;2022-11-15T12:36:12;13.00;99.90
20827;DHT22;10574;52.508;13.236;2022-11-15T12:38:55;13.00;99.90
20827;DHT22;10574;52.508;13.236;2022-11-15T12:41:32;13.10;99.90
20827;DHT22;10574;52.508;13.236;2022-11-15T12:54:49;13.30;99.90
20827;DHT22;10574;52.508;13.236;2022-11-15T13:02:33;13.30;99.90
20827;DHT22;10574;52.508;13.236;2022-11-15T13:10:33;13.30;99.90
20827;DHT22;10574;52.508;13.236;2022-11-15T13:13:03;13.30;99.90
20827;DHT22;10574;52.508;13.236;2022-11-15T13:15:37;13.30;99.90
20827;DHT22;10574;52.508;13.236;2022-11-15T13:21:22;13.40;99.90
20827;DHT22;10574;52.508;13.236;2022-11-15T13:24:16;13.30;99.90
20827;DHT22;10574;52.508;13.236;2022-11-15T13:26:47;13.50;99.90
20827;DHT22;10574;52.508;13.236;2022-11-15T13:29:17;13.40;99.90
20827;DHT22;10574;52.508;13.236;2022-11-15T13:31:45;13.50;99.90
20827;DHT22;10574;52.508;13.236;2022-11-15T13:36:53;13.30;99.90
20827;DHT22;10574;52.508;13.236;2022-11-15T13:39:32;13.40;99.90
20827;DHT22;10574;52.508;13.236;2022-11-15T13:42:02;13.50;99.90
20827;DHT22;10574;52.508;13.236;2022-11-15T13:44:32;13.60;99.90
20827;DHT22;10574;52.508;13.236;2022-11-15T13:47:18;13.60;99.90
20827;DHT22;10574;52.508;13.236;2022-11-15T13:49:36;13.70;99.90
20827;DHT22;10574;52.508;13.236;2022-11-15T13:52:07;13.60;99.90
20827;DHT22;10574;52.508;13.236;2022-11-15T13:54:40;13.70;99.90
20827;DHT22;10574;52.508;13.236;2022-11-15T14:00:06;13.50;99.90
20827;DHT22;10574;52.508;13.236;2022-11-15T14:02:36;13.50;99.90
20827;DHT22;10574;52.508;13.236;2022-11-15T14:05:15;13.40;99.90
20827;DHT22;10574;52.508;13.236;2022-11-15T14:08:02;13.40;99.90
20827;DHT22;10574;52.508;13.236;2022-11-15T14:10:28;13.20;99.90
20827;DHT22;10574;52.508;13.236;2022-11-15T14:12:57;13.20;99.90
20827;DHT22;10574;52.508;13.236;2022-11-15T14:15:33;13.00;99.90
20827;DHT22;10574;52.508;13.236;2022-11-15T14:18:02;12.90;99.90
20827;DHT22;10574;52.508;13.236;2022-11-15T14:20:37;12.80;99.90
20827;DHT22;10574;52.508;13.236;2022-11-15T14:23:24;12.80;99.90
20827;DHT22;10574;52.508;13.236;2022-11-15T14:25:57;12.80;99.90
20827;DHT22;10574;52.508;13.236;2022-11-15T14:30:58;12.80;99.90
20827;DHT22;10574;52.508;13.236;2022-11-15T14:36:05;12.70;99.90
20827;DHT22;10574;52.508;13.236;2022-11-15T14:38:33;12.70;99.90
20827;DHT22;10574;52.508;13.236;2022-11-15T14:41:01;12.60;99.90
20827;DHT22;10574;52.508;13.236;2022-11-15T14:43:28;12.50;99.90
20827;DHT22;10574;52.508;13.236;2022-11-15T14:45:56;12.50;99.90
20827;DHT22;10574;52.508;13.236;2022-11-15T14:48:24;12.40;99.90
20827;DHT22;10574;52.508;13.236;2022-11-15T14:50:51;12.20;99.90
20827;DHT22;10574;52.508;13.236;2022-11-15T14:53:19;12.20;99.90
20827;DHT22;10574;52.508;13.236;2022-11-15T14:55:49;12.10;99.90
20827;DHT22;10574;52.508;13.236;2022-11-15T14:58:17;12.00;99.90
20827;DHT22;10574;52.508;13.236;2022-11-15T15:00:44;12.00;99.90
20827;DHT22;10574;52.508;13.236;2022-11-15T15:03:12;12.00;99.90
20827;DHT22;10574;52.508;13.236;2022-11-15T15:05:41;12.00;99.90
20827;DHT22;10574;52.508;13.236;2022-11-15T15:08:10;11.90;99.90
20827;DHT22;10574;52.508;13.236;2022-11-15T15:13:22;11.50;99.90
20827;DHT22;10574;52.508;13.236;2022-11-15T15:15:51;11.40;99.90
20827;DHT22;10574;52.508;13.236;2022-11-15T15:18:19;11.30;99.90
20827;DHT22;10574;52.508;13.236;2022-11-15T15:20:51;11.20;99.90
20827;DHT22;10574;52.508;13.236;2022-11-15T15:23:19;11.10;99.90
20827;DHT22;10574;52.508;13.236;2022-11-15T15:25:48;11.10;99.90
20827;DHT22;10574;52.508;13.236;2022-11-15T15:28:15;11.00;99.90
20827;DHT22;10574;52.508;13.236;2022-11-15T15:30:43;10.90;99.90
20827;DHT22;10574;52.508;13.236;2022-11-15T15:33:11;10.90;99.90
20827;DHT22;10574;52.508;13.236;2022-11-15T15:35:38;10.80;99.90
20827;DHT22;10574;52.508;13.236;2022-11-15T15:38:08;10.80;99.90
20827;DHT22;10574;52.508;13.236;2022-11-15T15:40:35;10.80;99.90
20827;DHT22;10574;52.508;13.236;2022-11-15T15:43:03;10.70;99.90
20827;DHT22;10574;52.508;13.236;2022-11-15T15:45:31;10.70;99.90
20827;DHT22;10574;52.508;13.236;2022-11-15T15:47:59;10.60;99.90
20827;DHT22;10574;52.508;13.236;2022-11-15T15:50:29;10.60;99.90
20827;DHT22;10574;52.508;13.236;2022-11-15T15:52:58;10.40;99.90
20827;DHT22;10574;52.508;13.236;2022-11-15T15:55:26;10.40;99.90
20827;DHT22;10574;52.508;13.236;2022-11-15T15:57:54;10.40;99.90
20827;DHT22;10574;52.508;13.236;2022-11-15T16:00:23;10.40;99.90
20827;DHT22;10574;52.508;13.236;2022-11-15T16:02:52;10.40;99.90
20827;DHT22;10574;52.508;13.236;2022-11-15T16:05:21;10.30;99.90
20827;DHT22;10574;52.508;13.236;2022-11-15T16:07:49;10.30;99.90
20827;DHT22;10574;52.508;13.236;2022-11-15T16:10:25;10.30;99.90
20827;DHT22;10574;52.508;13.236;2022-11-15T16:12:54;10.30;99.90
20827;DHT22;10574;52.508;13.236;2022-11-15T16:15:24;10.20;99.90
20827;DHT22;10574;52.508;13.236;2022-11-15T16:17:57;10.20;99.90
20827;DHT22;10574;52.508;13.236;2022-11-15T16:20:38;10.20;99.90
20827;DHT22;10574;52.508;13.236;2022-11-15T16:23:07;10.10;99.90
20827;DHT22;10574;52.508;13.236;2022-11-15T16:25:38;10.10;99.90
20827;DHT22;10574;52.508;13.236;2022-11-15T16:28:21;10.10;99.90
20827;DHT22;10574;52.508;13.236;2022-11-15T16:30:49;10.10;99.90
20827;DHT22;10574;52.508;13.236;2022-11-15T16:33:18;10.10;99.90
20827;DHT22;10574;52.508;13.236;2022-11-15T16:35:46;10.10;99.90
20827;DHT22;10574;52.508;13.236;2022-11-15T16:38:15;10.00;99.90
20827;DHT22;10574;52.508;13.236;2022-11-15T16:40:43;10.10;99.90
20827;DHT22;10574;52.508;13.236;2022-11-15T16:43:11;10.10;99.90
20827;DHT22;10574;52.508;13.236;2022-11-15T16:45:39;10.00;99.90
20827;DHT22;10574;52.508;13.236;2022-11-15T16:48:07;10.10;99.90
20827;DHT22;10574;52.508;13.236;2022-11-15T16:50:36;10.10;99.90
20827;DHT22;10574;52.508;13.236;2022-11-15T16:53:06;10.20;99.90
20827;DHT22;10574;52.508;13.236;2022-11-15T16:55:34;10.20;99.90
20827;DHT22;10574;52.508;13.236;2022-11-15T16:58:01;10.20;99.90
20827;DHT22;10574;52.508;13.236;2022-11-15T17:00:29;10.30;99.90
20827;DHT22;10574;52.508;13.236;2022-11-15T17:02:57;10.20;99.90
20827;DHT22;10574;52.508;13.236;2022-11-15T17:05:25;10.20;99.90
20827;DHT22;10574;52.508;13.236;2022-11-15T17:07:55;10.10;99.90
20827;DHT22;10574;52.508;13.236;2022-11-15T17:10:24;10.10;99.90
20827;DHT22;10574;52.508;13.236;2022-11-15T17:12:54;10.10;99.90
20827;DHT22;10574;52.508;13.236;2022-11-15T17:15:22;10.10;99.90
20827;DHT22;10574;52.508;13.236;2022-11-15T17:17:53;10.10;99.90
20827;DHT22;10574;52.508;13.236;2022-11-15T17:20:23;10.10;99.90
20827;DHT22;10574;52.508;13.236;2022-11-15T17:22:51;10.10;99.90
20827;DHT22;10574;52.508;13.236;2022-11-15T17:25:19;10.00;99.90
20827;DHT22;10574;52.508;13.236;2022-11-15T17:27:47;10.00;99.90
20827;DHT22;10574;52.508;13.236;2022-11-15T17:30:15;10.00;99.90
20827;DHT22;10574;52.508;13.236;2022-11-15T17:32:45;9.90;99.90
20827;DHT22;10574;52.508;13.236;2022-11-15T17:35:15;9.80;99.90
20827;DHT22;10574;52.508;13.236;2022-11-15T17:37:43;9.80;99.90
20827;DHT22;10574;52.508;13.236;2022-11-15T17:40:10;9.70;99.90
20827;DHT22;10574;52.508;13.236;2022-11-15T17:42:40;9.70;99.90
20827;DHT22;10574;52.508;13.236;2022-11-15T17:45:09;9.60;99.90